Time;durP1;ratioP1;P1;durP2;ratioP2;P2;SDS_P1;SDS_P2;PMS_P1;PMS_P2;Temp;Humidity;BMP_temperature;BMP_pressure;BME280_temperature;BME280_humidity;BME280_pressure;Samples;Min_cycle;Max_cycle;Signal;HPM_P1;HPM_P2
2022/08/27 00:01:40;;;;;;;4.72;4.32;;;15.50;99.90;;;;;;6181993;23;20024;-76
2022/08/27 00:04:08;;;;;;;4.57;3.95;;;15.50;99.90;;;;;;6180288;23;20028;-72
2022/08/27 00:06:36;;;;;;;5.13;4.53;;;15.50;99.90;;;;;;6181866;23;20027;-73
2022/08/27 00:09:05;;;;;;;4.72;4.30;;;15.50;99.90;;;;;;6179760;23;20111;-73
2022/08/27 00:11:33;;;;;;;5.63;3.85;;;15.50;99.90;;;;;;6181824;23;20434;-73
2022/08/27 00:14:01;;;;;;;5.03;4.35;;;15.50;99.90;;;;;;6181696;23;20032;-73
2022/08/27 00:16:29;;;;;;;5.57;4.38;;;15.40;99.90;;;;;;6182157;23;20509;-72
2022/08/27 00:18:57;;;;;;;4.03;3.72;;;15.40;99.90;;;;;;6181880;23;20021;-73
2022/08/27 00:21:25;;;;;;;4.30;3.90;;;15.40;99.90;;;;;;6181784;23;20112;-73
2022/08/27 00:23:53;;;;;;;6.68;4.32;;;15.40;99.90;;;;;;6181707;23;20123;-72
2022/08/27 00:26:21;;;;;;;4.80;4.28;;;15.40;99.90;;;;;;6181967;23;20036;-72
2022/08/27 00:28:49;;;;;;;6.10;3.60;;;15.30;99.90;;;;;;6179621;23;20417;-73
2022/08/27 00:31:16;;;;;;;3.83;3.53;;;15.30;99.90;;;;;;6180246;23;20031;-72
2022/08/27 00:33:44;;;;;;;4.95;4.25;;;15.30;99.90;;;;;;6181578;23;20021;-73
2022/08/27 00:36:13;;;;;;;3.65;3.20;;;15.40;99.90;;;;;;6179993;23;20025;-72
2022/08/27 00:38:42;;;;;;;3.63;3.33;;;15.40;99.90;;;;;;6180046;23;20027;-73
2022/08/27 00:41:13;;;;;;;3.63;3.30;;;15.40;99.90;;;;;;6180167;23;20017;-73
2022/08/27 00:43:48;;;;;;;3.75;3.45;;;15.40;99.90;;;;;;6179900;23;20053;-73
2022/08/27 00:46:24;;;;;;;3.40;3.10;;;15.40;99.90;;;;;;6181860;23;20112;-73
2022/08/27 00:48:57;;;;;;;3.30;3.08;;;15.40;99.90;;;;;;6179849;23;20569;-73
2022/08/27 00:51:26;;;;;;;3.50;3.20;;;15.40;99.90;;;;;;6181627;23;20486;-74
2022/08/27 00:53:57;;;;;;;2.85;2.55;;;15.40;99.90;;;;;;6181001;23;20020;-73
2022/08/27 00:56:28;;;;;;;2.80;2.60;;;15.40;99.90;;;;;;6179884;23;20027;-73
2022/08/27 00:58:56;;;;;;;3.05;2.85;;;15.40;99.90;;;;;;6181491;23;20028;-73
2022/08/27 01:01:29;;;;;;;3.97;2.90;;;15.40;99.90;;;;;;6181780;23;20021;-73
2022/08/27 01:04:04;;;;;;;5.28;3.30;;;15.40;99.90;;;;;;6181148;23;20049;-73
2022/08/27 01:06:35;;;;;;;5.18;3.00;;;15.40;99.90;;;;;;6180225;23;20362;-73
2022/08/27 01:09:14;;;;;;;2.95;2.75;;;15.40;99.90;;;;;;6155076;23;20031;-74
2022/08/27 01:11:43;;;;;;;3.28;3.00;;;15.40;99.90;;;;;;6181751;23;20028;-74
2022/08/27 01:14:10;;;;;;;3.60;2.97;;;15.40;99.90;;;;;;6181650;23;20025;-77
2022/08/27 01:16:43;;;;;;;3.25;3.05;;;15.50;99.90;;;;;;6181764;23;20031;-77
2022/08/27 01:19:20;;;;;;;3.22;2.97;;;15.50;99.90;;;;;;6204960;23;20021;-77
2022/08/27 01:21:55;;;;;;;3.30;3.10;;;15.50;99.90;;;;;;6181196;23;20399;-78
2022/08/27 01:24:34;;;;;;;4.25;3.83;;;15.60;99.90;;;;;;6181049;23;20020;-77
2022/08/27 01:27:05;;;;;;;4.50;4.10;;;15.60;99.90;;;;;;6182726;23;20020;-77
2022/08/27 01:29:32;;;;;;;4.65;4.18;;;15.60;99.90;;;;;;6181331;23;20031;-77
2022/08/27 01:32:07;;;;;;;5.20;3.72;;;15.60;99.90;;;;;;6181768;23;20025;-77
2022/08/27 01:34:35;;;;;;;5.47;4.38;;;15.50;99.90;;;;;;6181663;23;20104;-77
2022/08/27 01:37:04;;;;;;;4.60;4.22;;;15.50;99.90;;;;;;6183565;23;20052;-77
2022/08/27 01:39:33;;;;;;;5.13;4.32;;;15.50;99.90;;;;;;6183150;23;20045;-77
2022/08/27 01:42:06;;;;;;;4.90;4.45;;;15.50;99.90;;;;;;6183262;23;20407;-77
2022/08/27 01:44:46;;;;;;;;;;;15.50;99.90;;;;;;6184263;23;20076;-77
2022/08/27 01:47:15;;;;;;;7.20;4.88;;;15.40;99.90;;;;;;6183728;23;19958;-77
2022/08/27 01:49:43;;;;;;;5.15;4.68;;;15.40;99.90;;;;;;6182950;23;20029;-78
2022/08/27 01:52:11;;;;;;;7.15;5.25;;;15.30;99.90;;;;;;6181693;23;20461;-75
2022/08/27 01:54:40;;;;;;;5.47;4.75;;;15.30;99.90;;;;;;6182742;23;20052;-72
2022/08/27 01:57:08;;;;;;;6.28;5.25;;;15.30;99.90;;;;;;6181714;23;20025;-73
2022/08/27 01:59:36;;;;;;;6.22;5.07;;;15.40;99.90;;;;;;6181097;23;20024;-72
2022/08/27 02:02:05;;;;;;;9.90;5.35;;;15.30;99.90;;;;;;6183556;23;20113;-74
2022/08/27 02:04:32;;;;;;;6.45;5.55;;;15.30;99.90;;;;;;6181244;23;20040;-75
2022/08/27 02:07:00;;;;;;;6.07;5.47;;;15.40;99.90;;;;;;6183144;23;20021;-75
2022/08/27 02:09:28;;;;;;;8.13;5.65;;;15.40;99.90;;;;;;6156302;23;20021;-75
2022/08/27 02:11:56;;;;;;;9.75;6.35;;;15.40;99.90;;;;;;6183138;23;20467;-73
2022/08/27 02:14:24;;;;;;;8.02;5.72;;;15.40;99.90;;;;;;6182831;23;20025;-74
2022/08/27 02:16:51;;;;;;;6.63;5.75;;;15.40;99.90;;;;;;6181212;23;20044;-73
2022/08/27 02:19:18;;;;;;;7.72;5.75;;;15.50;99.90;;;;;;6182414;23;20029;-73
2022/08/27 02:21:46;;;;;;;11.48;6.50;;;15.50;99.90;;;;;;6181510;23;20024;-73
2022/08/27 02:24:14;;;;;;;11.77;6.30;;;15.50;99.90;;;;;;6205951;23;20025;-73
2022/08/27 02:26:41;;;;;;;10.30;6.57;;;15.50;99.90;;;;;;6181114;23;20308;-74
2022/08/27 02:29:10;;;;;;;10.50;5.82;;;15.50;99.90;;;;;;6182728;23;20072;-73
2022/08/27 02:31:38;;;;;;;8.18;5.68;;;15.50;99.90;;;;;;6181617;23;20071;-73
2022/08/27 02:34:06;;;;;;;7.50;4.32;;;15.40;99.90;;;;;;6182673;23;20071;-73
2022/08/27 02:36:33;;;;;;;11.77;5.18;;;15.40;99.90;;;;;;6182740;23;20017;-73
2022/08/27 02:39:01;;;;;;;7.93;4.47;;;15.40;99.90;;;;;;6181880;23;20335;-73
2022/08/27 02:41:28;;;;;;;6.88;4.18;;;15.40;99.90;;;;;;6156133;23;20031;-73
2022/08/27 02:43:56;;;;;;;7.88;4.88;;;15.40;99.90;;;;;;6182294;23;20421;-74
2022/08/27 02:46:25;;;;;;;6.80;4.00;;;15.30;99.90;;;;;;6182654;23;20040;-73
2022/08/27 02:48:52;;;;;;;5.93;3.90;;;15.30;99.90;;;;;;6180342;23;20017;-73
2022/08/27 02:51:20;;;;;;;4.72;4.38;;;15.30;99.90;;;;;;6182600;23;20032;-74
2022/08/27 02:53:47;;;;;;;5.53;4.90;;;15.40;99.90;;;;;;6182461;23;20029;-73
2022/08/27 02:56:14;;;;;;;5.60;4.00;;;15.40;99.90;;;;;;6182047;23;20036;-73
2022/08/27 02:58:42;;;;;;;6.53;4.63;;;15.40;99.90;;;;;;6180159;23;20054;-74
2022/08/27 03:01:09;;;;;;;5.22;4.72;;;15.50;99.90;;;;;;6180772;23;20028;-74
2022/08/27 03:03:38;;;;;;;5.63;4.88;;;15.50;99.90;;;;;;6180552;23;20032;-73
2022/08/27 03:06:06;;;;;;;5.05;4.38;;;15.60;99.90;;;;;;6182497;23;20032;-73
2022/08/27 03:08:33;;;;;;;7.68;4.43;;;15.60;99.90;;;;;;6182536;23;20016;-73
2022/08/27 03:11:00;;;;;;;5.05;4.45;;;15.60;99.90;;;;;;6182153;23;20031;-73
2022/08/27 03:13:28;;;;;;;5.75;4.22;;;15.60;99.90;;;;;;6205858;23;20025;-73
2022/08/27 03:15:55;;;;;;;9.00;5.15;;;15.70;99.90;;;;;;6180873;23;20021;-73
2022/08/27 03:18:22;;;;;;;7.20;5.43;;;15.70;99.90;;;;;;6180817;23;20439;-73
2022/08/27 03:20:54;;;;;;;9.55;6.15;;;15.80;99.90;;;;;;6180430;23;20021;-74
2022/08/27 03:23:25;;;;;;;6.95;5.05;;;15.80;99.90;;;;;;6182040;23;20021;-74
2022/08/27 03:25:55;;;;;;;5.95;5.35;;;15.80;99.90;;;;;;6181828;23;20028;-74
2022/08/27 03:28:27;;;;;;;8.30;5.43;;;15.80;99.90;;;;;;6181554;23;20045;-74
2022/08/27 03:30:59;;;;;;;6.22;5.22;;;15.80;99.90;;;;;;6181913;23;20056;-74
2022/08/27 03:33:28;;;;;;;9.85;6.18;;;15.90;99.90;;;;;;6181733;23;20024;-74
2022/08/27 03:35:57;;;;;;;6.30;5.50;;;15.90;99.90;;;;;;6180359;23;20032;-74
2022/08/27 03:38:26;;;;;;;8.43;5.68;;;15.90;99.90;;;;;;6182214;23;20374;-74
2022/08/27 03:40:54;;;;;;;9.15;6.20;;;15.90;99.90;;;;;;6180550;23;20025;-74
2022/08/27 03:43:23;;;;;;;7.25;4.93;;;15.90;99.90;;;;;;6180248;23;20021;-74
2022/08/27 03:45:51;;;;;;;6.30;5.50;;;16.00;99.90;;;;;;6180708;23;20028;-74
2022/08/27 03:48:20;;;;;;;7.90;5.50;;;16.00;99.90;;;;;;6181841;23;20057;-74
2022/08/27 03:50:49;;;;;;;8.38;5.97;;;16.00;99.90;;;;;;6179967;23;20036;-74
2022/08/27 03:53:20;;;;;;;8.45;6.13;;;16.10;99.90;;;;;;6179933;23;20016;-74
2022/08/27 03:55:48;;;;;;;7.13;5.55;;;16.10;99.90;;;;;;6181944;23;20021;-74
2022/08/27 03:58:16;;;;;;;10.88;6.40;;;16.20;99.90;;;;;;6180222;23;20025;-74
2022/08/27 04:00:44;;;;;;;9.75;6.00;;;16.20;99.90;;;;;;6205249;23;20056;-75
2022/08/27 04:03:13;;;;;;;12.32;6.65;;;16.30;99.90;;;;;;6181522;23;20025;-74
2022/08/27 04:05:42;;;;;;;9.10;6.20;;;16.30;99.90;;;;;;6180324;23;20021;-74
2022/08/27 04:08:10;;;;;;;13.13;5.57;;;16.40;99.90;;;;;;6181318;23;20075;-74
2022/08/27 04:10:41;;;;;;;8.32;6.80;;;16.40;99.90;;;;;;6181416;23;20025;-74
2022/08/27 04:13:09;;;;;;;10.73;6.32;;;16.50;99.90;;;;;;6204706;23;20029;-75
2022/08/27 04:15:36;;;;;;;8.85;6.70;;;16.60;99.90;;;;;;6181487;23;20052;-78
2022/08/27 04:18:05;;;;;;;8.73;6.10;;;16.60;99.90;;;;;;6180216;23;20025;-77
2022/08/27 04:20:32;;;;;;;11.25;7.55;;;16.70;99.90;;;;;;6181681;23;20104;-74
2022/08/27 04:23:00;;;;;;;13.02;7.07;;;16.80;99.90;;;;;;6181932;23;20025;-78
2022/08/27 04:25:28;;;;;;;10.48;6.45;;;16.80;99.90;;;;;;6155165;23;20036;-78
2022/08/27 04:27:58;;;;;;;13.48;6.80;;;16.90;99.90;;;;;;6181615;23;20020;-77
2022/08/27 04:30:25;;;;;;;9.43;6.75;;;16.90;99.90;;;;;;6181665;23;20032;-77
2022/08/27 04:32:57;;;;;;;9.30;6.07;;;17.00;99.90;;;;;;6181139;23;20025;-78
2022/08/27 04:35:25;;;;;;;12.50;9.00;;;17.10;99.90;;;;;;6179583;23;20029;-78
2022/08/27 04:37:52;;;;;;;12.35;6.93;;;17.20;99.90;;;;;;6154936;23;20021;-78
2022/08/27 04:40:19;;;;;;;9.10;6.43;;;17.20;99.90;;;;;;6181494;23;20021;-79
2022/08/27 04:42:47;;;;;;;6.45;5.78;;;17.30;99.90;;;;;;6181701;23;20059;-79
2022/08/27 04:45:16;;;;;;;6.53;5.43;;;17.40;99.90;;;;;;6181456;23;20020;-78
2022/08/27 04:47:44;;;;;;;6.68;5.55;;;17.50;99.90;;;;;;6181415;23;20411;-78
2022/08/27 04:50:12;;;;;;;11.23;6.03;;;17.50;99.90;;;;;;6181279;23;20051;-77
2022/08/27 04:52:40;;;;;;;9.13;6.53;;;17.60;99.90;;;;;;6181775;23;20025;-73
2022/08/27 04:55:10;;;;;;;10.07;5.70;;;17.70;99.90;;;;;;6181125;23;20017;-73
2022/08/27 04:57:40;;;;;;;9.10;5.70;;;17.70;99.90;;;;;;6179543;23;20087;-74
2022/08/27 05:00:10;;;;;;;10.75;6.88;;;17.80;99.90;;;;;;6180129;23;20055;-73
2022/08/27 05:02:38;;;;;;;12.55;6.82;;;17.80;99.90;;;;;;6183481;23;20045;-77
2022/08/27 05:05:07;;;;;;;10.88;6.65;;;17.80;99.90;;;;;;6181733;23;20025;-77
2022/08/27 05:07:35;;;;;;;9.90;6.03;;;17.90;99.90;;;;;;6184154;23;20021;-74
2022/08/27 05:10:02;;;;;;;9.57;6.93;;;17.90;99.90;;;;;;6181621;23;20025;-73
2022/08/27 05:12:30;;;;;;;8.45;6.32;;;18.00;99.90;;;;;;6181839;23;20450;-73
2022/08/27 05:14:57;;;;;;;11.50;6.40;;;18.00;99.90;;;;;;6181708;23;20052;-73
2022/08/27 05:17:25;;;;;;;6.72;5.80;;;18.10;99.90;;;;;;6182039;23;20024;-77
2022/08/27 05:19:53;;;;;;;6.18;5.40;;;18.10;99.90;;;;;;6183915;23;20373;-77
2022/08/27 05:22:21;;;;;;;7.30;6.00;;;18.20;99.90;;;;;;6183805;23;20025;-77
2022/08/27 05:24:50;;;;;;;8.75;5.45;;;18.20;99.90;;;;;;6183159;23;20021;-77
2022/08/27 05:27:17;;;;;;;9.30;6.35;;;18.20;99.90;;;;;;6181723;23;20025;-77
2022/08/27 05:29:45;;;;;;;20.35;8.40;;;18.40;99.90;;;;;;6182490;23;20488;-74
2022/08/27 05:32:12;;;;;;;7.28;5.57;;;18.50;99.90;;;;;;6183768;23;20104;-73
2022/08/27 05:34:40;;;;;;;32.67;11.10;;;18.60;99.90;;;;;;6181236;23;20045;-73
2022/08/27 05:37:09;;;;;;;59.92;17.40;;;18.70;99.90;;;;;;6180968;23;20051;-75
2022/08/27 05:39:36;;;;;;;8.77;6.43;;;18.80;99.90;;;;;;6182280;23;20137;-73
2022/08/27 05:42:04;;;;;;;9.93;6.20;;;18.90;99.90;;;;;;6183012;23;20032;-72
2022/08/27 05:44:32;;;;;;;7.95;5.65;;;18.90;99.90;;;;;;6180660;23;20028;-72
2022/08/27 05:47:00;;;;;;;8.18;5.00;;;19.00;99.90;;;;;;6184247;23;20394;-76
2022/08/27 05:49:27;;;;;;;7.13;5.30;;;19.00;99.90;;;;;;6183554;23;20108;-77
2022/08/27 05:51:54;;;;;;;9.43;5.82;;;19.00;99.90;;;;;;6183752;23;20035;-73
2022/08/27 05:54:23;;;;;;;5.88;5.32;;;19.00;99.90;;;;;;6183022;23;20020;-73
2022/08/27 05:56:51;;;;;;;9.18;4.68;;;19.10;99.90;;;;;;6183249;23;20380;-74
2022/08/27 06:02:05;;;;;;;8.18;5.40;;;20.10;99.90;;;;;;6209089;23;20079;-76
2022/08/27 06:04:37;;;;;;;7.10;5.28;;;20.70;99.90;;;;;;6181048;23;20063;-76
2022/08/27 06:07:08;;;;;;;6.72;5.15;;;21.30;99.90;;;;;;6182658;23;20076;-76
2022/08/27 06:09:38;;;;;;;8.55;6.03;;;21.80;99.90;;;;;;6182523;23;20021;-76
2022/08/27 06:12:07;;;;;;;6.93;4.82;;;22.30;99.90;;;;;;6181235;23;20033;-73
2022/08/27 06:14:36;;;;;;;5.70;4.40;;;22.70;99.90;;;;;;6181774;23;20017;-73
2022/08/27 06:17:05;;;;;;;5.65;4.82;;;23.20;99.90;;;;;;6183140;23;20025;-76
2022/08/27 06:19:33;;;;;;;5.75;4.65;;;23.60;99.90;;;;;;6179534;23;20053;-75
2022/08/27 06:22:01;;;;;;;5.60;5.05;;;24.00;99.90;;;;;;6181018;23;20544;-79
2022/08/27 06:24:29;;;;;;;10.60;7.10;;;24.40;99.90;;;;;;6181412;23;20103;-77
2022/08/27 06:26:58;;;;;;;7.60;4.60;;;24.60;99.90;;;;;;6181396;23;20031;-77
2022/08/27 06:29:26;;;;;;;6.63;4.22;;;24.90;99.90;;;;;;6180799;23;20025;-80
2022/08/27 06:31:55;;;;;;;5.93;4.10;;;25.20;99.90;;;;;;6178810;23;20104;-80
2022/08/27 06:34:22;;;;;;;4.63;4.00;;;25.50;99.90;;;;;;6179777;23;20025;-80
2022/08/27 06:36:52;;;;;;;9.45;4.70;;;25.70;99.90;;;;;;6181590;23;20021;-80
2022/08/27 06:39:19;;;;;;;5.88;4.70;;;25.90;99.90;;;;;;6182385;23;20025;-76
2022/08/27 06:41:49;;;;;;;5.70;4.68;;;26.10;99.90;;;;;;6181668;23;20025;-75
2022/08/27 06:44:23;;;;;;;6.22;5.07;;;26.40;99.90;;;;;;6180566;23;20548;-75
2022/08/27 06:46:52;;;;;;;8.38;7.25;;;26.60;99.90;;;;;;6179010;23;20029;-76
2022/08/27 06:49:20;;;;;;;7.72;5.32;;;26.70;99.90;;;;;;6181694;23;20379;-83
2022/08/27 06:51:48;;;;;;;6.30;5.60;;;27.00;99.90;;;;;;6178981;23;20021;-82
2022/08/27 06:54:18;;;;;;;10.10;4.75;;;27.30;99.90;;;;;;6181013;23;20415;-80
2022/08/27 06:56:48;;;;;;;11.02;5.38;;;27.60;99.90;;;;;;6180994;23;20537;-80
2022/08/27 06:59:19;;;;;;;6.43;4.50;;;27.80;99.90;;;;;;6179928;23;20031;-77
2022/08/27 07:01:51;;;;;;;7.40;4.75;;;28.10;99.90;;;;;;6181322;23;20048;-79
2022/08/27 07:04:22;;;;;;;7.28;4.38;;;28.30;99.90;;;;;;6107813;23;20343;-73
2022/08/27 07:06:51;;;;;;;4.60;4.20;;;28.60;99.90;;;;;;6179462;23;20021;-73
2022/08/27 07:09:24;;;;;;;7.70;6.95;;;28.80;99.90;;;;;;6180232;23;20024;-74
2022/08/27 07:11:52;;;;;;;5.88;4.32;;;29.10;99.90;;;;;;6179861;23;20033;-77
2022/08/27 07:14:19;;;;;;;13.40;5.05;;;29.30;99.90;;;;;;6179973;23;20056;-73
2022/08/27 07:16:50;;;;;;;5.82;4.85;;;29.50;99.90;;;;;;6181027;23;20434;-73
2022/08/27 07:19:17;;;;;;;16.63;5.00;;;29.80;99.90;;;;;;6177459;23;20021;-73
2022/08/27 07:21:44;;;;;;;10.07;8.73;;;30.00;99.90;;;;;;6179029;23;20017;-79
2022/08/27 07:24:13;;;;;;;4.63;4.22;;;30.20;99.90;;;;;;6176437;23;20108;-79
2022/08/27 07:26:43;;;;;;;6.03;4.70;;;30.50;99.90;;;;;;6179614;23;20048;-79
2022/08/27 07:29:14;;;;;;;6.10;3.92;;;30.70;99.90;;;;;;6180956;23;20029;-80
2022/08/27 07:31:42;;;;;;;7.22;4.75;;;31.00;99.90;;;;;;6180854;23;20083;-81
2022/08/27 07:34:12;;;;;;;6.25;4.05;;;31.30;99.90;;;;;;6181951;23;20048;-80
2022/08/27 07:36:40;;;;;;;5.30;3.40;;;31.50;99.90;;;;;;6180749;23;20044;-79
2022/08/27 07:39:08;;;;;;;9.82;4.18;;;31.60;99.90;;;;;;6177623;23;20470;-81
2022/08/27 07:44:23;;;;;;;6.22;3.55;;;31.80;97.40;;;;;;6179533;23;20017;-76
2022/08/27 07:44:24;;;;;;;7.80;3.63;;;32.00;98.10;;;;;;6181396;23;20021;-78
2022/08/27 07:46:53;;;;;;;8.20;3.38;;;32.40;96.40;;;;;;6182355;23;20120;-79
2022/08/27 07:49:23;;;;;;;11.35;4.32;;;32.50;94.00;;;;;;6180348;23;20033;-78
2022/08/27 07:51:52;;;;;;;5.22;3.72;;;32.60;93.00;;;;;;6182259;23;20051;-85
2022/08/27 07:54:22;;;;;;;4.95;3.63;;;32.90;93.00;;;;;;6181618;23;20027;-79
2022/08/27 07:56:50;;;;;;;4.40;4.07;;;33.20;92.40;;;;;;6180770;23;20063;-79
2022/08/27 07:59:18;;;;;;;7.80;4.20;;;33.50;90.70;;;;;;6181776;23;20466;-78
2022/08/27 08:01:47;;;;;;;6.45;4.00;;;33.80;86.40;;;;;;6181216;23;20036;-75
2022/08/27 08:04:15;;;;;;;9.40;4.32;;;34.10;85.20;;;;;;6181912;23;20040;-74
2022/08/27 08:06:44;;;;;;;5.15;4.65;;;34.30;85.60;;;;;;6181894;23;20021;-77
2022/08/27 08:09:12;;;;;;;9.00;4.03;;;34.60;82.90;;;;;;6180863;23;20021;-77
2022/08/27 08:11:41;;;;;;;7.10;4.78;;;34.70;81.60;;;;;;6181271;23;20102;-75
2022/08/27 08:14:08;;;;;;;9.25;4.85;;;34.70;80.80;;;;;;6180080;23;20358;-74
2022/08/27 08:16:36;;;;;;;6.13;4.35;;;34.80;82.00;;;;;;6181313;23;20358;-76
2022/08/27 08:19:03;;;;;;;7.88;4.40;;;34.90;81.00;;;;;;6181503;23;20029;-74
2022/08/27 08:21:30;;;;;;;10.63;5.13;;;35.10;79.30;;;;;;6181947;23;20506;-75
2022/08/27 08:24:01;;;;;;;4.13;3.80;;;35.30;78.80;;;;;;6179803;23;20032;-75
2022/08/27 08:26:29;;;;;;;11.15;4.78;;;35.40;77.50;;;;;;6179680;23;20032;-75
2022/08/27 08:28:57;;;;;;;8.02;4.60;;;35.50;75.60;;;;;;6179735;23;20044;-75
2022/08/27 08:31:26;;;;;;;7.43;4.70;;;35.70;75.10;;;;;;6181826;23;20572;-75
2022/08/27 08:33:53;;;;;;;4.65;4.10;;;35.90;76.40;;;;;;6182186;23;20029;-75
2022/08/27 08:36:21;;;;;;;6.75;5.38;;;36.20;75.20;;;;;;6183761;23;20079;-76
2022/08/27 08:38:49;;;;;;;4.93;4.38;;;36.30;73.20;;;;;;6183268;23;20505;-77
2022/08/27 08:41:37;;;;;;;8.52;4.88;;;36.40;71.50;;;;;;6184506;23;20031;-78
2022/08/27 08:44:17;;;;;;;9.43;4.97;;;36.20;70.40;;;;;;6183600;23;20025;-78
2022/08/27 08:46:50;;;;;;;5.30;4.78;;;36.00;70.00;;;;;;6184135;23;20025;-76
2022/08/27 08:49:32;;;;;;;7.68;4.25;;;35.80;72.60;;;;;;6182907;23;20035;-79
2022/08/27 08:52:28;;;;;;;5.70;4.78;;;36.10;71.90;;;;;;6182966;23;20051;-79
2022/08/27 08:55:08;;;;;;;7.25;5.30;;;36.50;72.30;;;;;;6184186;23;20083;-78
2022/08/27 08:57:49;;;;;;;6.50;4.28;;;36.90;68.30;;;;;;6184270;23;20451;-72
2022/08/27 09:00:16;;;;;;;11.30;4.47;;;36.90;65.50;;;;;;6183632;23;20365;-77
2022/08/27 09:02:53;;;;;;;7.97;4.85;;;36.40;67.60;;;;;;6181765;23;20024;-76
2022/08/27 09:05:21;;;;;;;9.10;4.53;;;36.60;67.70;;;;;;6182795;23;20091;-77
2022/08/27 09:08:01;;;;;;;8.35;4.20;;;37.10;68.50;;;;;;6180774;23;20398;-77
2022/08/27 09:10:39;;;;;;;4.97;4.47;;;37.40;68.60;;;;;;6183784;23;20048;-77
2022/08/27 09:13:20;;;;;;;6.03;4.00;;;37.90;67.00;;;;;;6181949;23;20140;-75
2022/08/27 09:15:48;;;;;;;;;;;38.30;64.40;;;;;;6182977;23;20021;-75
2022/08/27 09:18:17;;;;;;;9.73;4.15;;;38.20;62.20;;;;;;6181449;23;19995;-76
2022/08/27 09:20:50;;;;;;;7.90;4.18;;;37.60;60.90;;;;;;6183814;23;20017;-74
2022/08/27 09:23:25;;;;;;;7.60;6.32;;;37.50;61.60;;;;;;6183921;23;20108;-73
2022/08/27 09:25:52;;;;;;;6.70;5.38;;;37.00;61.90;;;;;;6182998;23;20164;-74
2022/08/27 09:31:15;;;;;;;10.85;5.20;;;37.60;64.10;;;;;;6182994;23;20075;-74
2022/08/27 09:33:43;;;;;;;8.00;4.45;;;38.00;61.30;;;;;;6181794;23;20029;-74
2022/08/27 09:36:16;;;;;;;4.72;4.00;;;37.70;61.40;;;;;;6182407;23;20087;-73
2022/08/27 09:38:55;;;;;;;7.38;5.18;;;37.00;61.60;;;;;;6182104;23;20047;-75
2022/08/27 09:41:27;;;;;;;9.80;6.00;;;36.20;65.50;;;;;;6181494;23;20418;-73
2022/08/27 09:44:01;;;;;;;6.35;4.80;;;35.30;68.00;;;;;;6182852;23;20029;-74
2022/08/27 09:46:30;;;;;;;5.32;4.82;;;34.70;66.30;;;;;;6183585;23;20025;-78
2022/08/27 09:48:57;;;;;;;6.22;4.43;;;33.80;68.00;;;;;;6181205;23;20025;-75
2022/08/27 09:51:28;;;;;;;6.72;4.60;;;33.20;71.00;;;;;;6182620;23;20057;-75
2022/08/27 09:53:58;;;;;;;9.32;4.93;;;33.20;70.90;;;;;;6182565;23;20027;-77
2022/08/27 09:56:32;;;;;;;6.77;4.57;;;33.50;72.20;;;;;;6206467;23;20113;-78
2022/08/27 09:59:07;;;;;;;9.25;5.90;;;34.20;71.50;;;;;;6181184;23;20347;-80
2022/08/27 10:01:54;;;;;;;10.27;5.20;;;35.40;71.30;;;;;;6181329;23;20020;-76
2022/08/27 10:04:28;;;;;;;7.93;5.03;;;36.20;64.60;;;;;;6181536;23;20017;-78
2022/08/27 10:06:58;;;;;;;9.07;5.45;;;36.90;64.80;;;;;;6181431;23;20021;-77
2022/08/27 10:09:33;;;;;;;5.28;4.68;;;37.60;64.90;;;;;;6181884;23;20021;-81
2022/08/27 10:12:10;;;;;;;9.77;4.80;;;38.30;60.10;;;;;;6182915;23;20025;-76
2022/08/27 10:14:45;;;;;;;7.43;4.90;;;38.10;59.60;;;;;;6182902;23;20021;-75
2022/08/27 10:17:23;;;;;;;9.98;5.60;;;37.90;60.00;;;;;;6180946;23;20389;-77
2022/08/27 10:20:10;;;;;;;7.55;4.70;;;38.20;62.10;;;;;;6178242;23;20204;-73
2022/08/27 10:22:49;;;;;;;8.98;4.45;;;38.70;58.60;;;;;;6181270;23;20076;-77
2022/08/27 10:25:29;;;;;;;13.00;4.80;;;39.40;58.30;;;;;;6180533;23;20021;-74
2022/08/27 10:28:11;;;;;;;10.90;5.20;;;39.70;57.10;;;;;;6179967;23;20481;-76
2022/08/27 10:30:59;;;;;;;6.13;5.13;;;39.80;57.60;;;;;;6182506;23;20052;-77
2022/08/27 10:33:35;;;;;;;7.65;4.88;;;40.00;55.30;;;;;;6180424;23;20025;-75
2022/08/27 10:36:18;;;;;;;4.70;4.22;;;39.30;55.90;;;;;;6181896;23;20021;-75
2022/08/27 10:38:53;;;;;;;8.02;5.00;;;39.00;57.80;;;;;;6181890;23;20021;-75
2022/08/27 10:41:27;;;;;;;13.07;9.35;;;39.10;57.70;;;;;;6179351;23;20207;-75
2022/08/27 10:44:20;;;;;;;8.65;5.15;;;39.30;56.20;;;;;;6179854;23;20032;-74
2022/08/27 10:47:10;;;;;;;5.00;4.40;;;39.00;56.80;;;;;;6179337;23;20020;-74
2022/08/27 10:49:53;;;;;;;8.07;4.70;;;38.50;56.50;;;;;;6152230;23;20105;-78
2022/08/27 10:52:28;;;;;;;9.40;4.68;;;38.40;57.80;;;;;;6150918;23;20036;-78
2022/08/27 10:55:01;;;;;;;8.48;5.00;;;37.70;58.70;;;;;;6151012;23;20215;-78
2022/08/27 10:57:51;;;;;;;9.40;5.68;;;36.90;60.60;;;;;;6153160;23;20049;-81
2022/08/27 11:00:22;;;;;;;8.60;6.05;;;36.00;63.10;;;;;;6149772;23;20021;-79
2022/08/27 11:02:57;;;;;;;7.47;5.50;;;35.20;63.20;;;;;;6150676;23;20021;-75
2022/08/27 11:05:34;;;;;;;8.43;5.95;;;34.50;64.80;;;;;;6150642;23;20025;-73
2022/08/27 11:08:07;;;;;;;9.52;6.10;;;33.90;66.60;;;;;;6152090;23;20049;-73
2022/08/27 11:10:41;;;;;;;12.10;5.82;;;33.60;68.50;;;;;;6101351;23;20025;-77
2022/08/27 11:13:16;;;;;;;8.45;6.18;;;33.30;70.50;;;;;;6151612;23;20110;-73
2022/08/27 11:15:50;;;;;;;6.70;5.00;;;33.70;70.30;;;;;;6150795;23;20060;-74
2022/08/27 11:18:30;;;;;;;12.70;5.93;;;34.70;69.60;;;;;;6152159;23;20136;-74
2022/08/27 11:21:03;;;;;;;9.80;6.20;;;36.00;67.30;;;;;;6149754;23;20021;-72
2022/08/27 11:23:39;;;;;;;10.05;5.32;;;36.90;62.10;;;;;;6151390;23;20048;-73
2022/08/27 11:26:09;;;;;;;8.20;6.63;;;37.00;62.80;;;;;;6149944;23;20339;-73
2022/08/27 11:28:43;;;;;;;10.77;6.40;;;37.60;60.60;;;;;;6150192;23;20081;-73
2022/08/27 11:31:19;;;;;;;9.10;6.18;;;38.10;59.30;;;;;;6152887;23;20100;-72
2022/08/27 11:33:57;;;;;;;7.15;5.70;;;38.70;59.40;;;;;;6149197;23;19920;-72
2022/08/27 11:37:09;;;;;;;9.77;6.38;;;39.50;59.10;;;;;;6150576;23;20029;-73
2022/08/27 11:40:17;;;;;;;11.93;6.15;;;40.10;56.50;;;;;;6151221;23;20382;-72
2022/08/27 11:42:49;;;;;;;9.27;5.85;;;40.00;56.20;;;;;;6105338;23;20355;-77
2022/08/27 11:45:18;;;;;;;;;;;40.10;57.40;;;;;;6150266;23;20104;-71
2022/08/27 11:47:56;;;;;;;6.00;5.50;;;40.40;56.50;;;;;;6147980;23;20029;-72
2022/08/27 11:50:29;;;;;;;9.90;6.18;;;40.60;55.90;;;;;;6143699;23;20080;-72
2022/08/27 11:53:02;;;;;;;12.75;6.55;;;40.90;55.90;;;;;;6144323;23;20497;-72
2022/08/27 11:55:36;;;;;;;8.07;5.88;;;41.20;56.40;;;;;;6144088;23;20029;-74
2022/08/27 11:58:10;;;;;;;6.63;6.03;;;41.50;55.00;;;;;;6144473;23;20264;-71
2022/08/27 12:00:43;;;;;;;7.78;6.40;;;41.80;55.80;;;;;;6140121;23;20025;-72
2022/08/27 12:03:29;;;;;;;11.35;7.35;;;41.90;55.10;;;;;;6145183;23;20025;-72
2022/08/27 12:06:28;;;;;;;9.02;6.32;;;42.10;54.30;;;;;;6144753;23;20029;-72
2022/08/27 12:09:14;;;;;;;6.70;5.82;;;42.10;53.90;;;;;;6142850;23;20156;-78
2022/08/27 12:11:55;;;;;;;8.48;6.78;;;42.10;54.40;;;;;;6121645;23;20028;-79
2022/08/27 12:14:42;;;;;;;8.45;7.05;;;42.20;53.50;;;;;;6142051;23;20018;-75
2022/08/27 12:17:24;;;;;;;10.10;6.43;;;41.90;53.40;;;;;;6145885;23;20099;-72
2022/08/27 12:20:11;;;;;;;13.82;6.53;;;42.00;54.30;;;;;;6143980;23;20068;-78
2022/08/27 12:26:00;;;;;;;10.32;7.15;;;42.10;52.60;;;;;;6135496;23;20103;-76
2022/08/27 12:28:28;;;;;;;13.25;6.63;;;42.00;52.90;;;;;;6143992;23;20154;-77
2022/08/27 12:30:57;;;;;;;14.90;6.75;;;42.00;52.80;;;;;;6147462;23;20130;-79
2022/08/27 12:33:31;;;;;;;9.73;6.28;;;41.50;53.60;;;;;;6144591;23;20033;-77
2022/08/27 12:36:09;;;;;;;13.30;5.95;;;41.50;54.60;;;;;;6145116;23;20029;-77
2022/08/27 12:38:46;;;;;;;11.02;6.82;;;41.50;54.30;;;;;;6144987;23;20021;-78
2022/08/27 12:41:26;;;;;;;7.30;6.63;;;41.70;53.60;;;;;;6145649;23;20480;-76
2022/08/27 12:44:05;;;;;;;7.43;6.65;;;41.90;53.30;;;;;;6146505;23;20036;-79
2022/08/27 12:46:38;;;;;;;9.25;6.60;;;42.10;53.40;;;;;;6144734;23;20026;-77
2022/08/27 12:49:07;;;;;;;12.18;7.07;;;42.30;53.10;;;;;;6146011;23;20364;-73
2022/08/27 12:51:38;;;;;;;9.63;6.47;;;42.30;52.70;;;;;;6144642;23;20033;-78
2022/08/27 12:54:23;;;;;;;6.68;6.03;;;42.10;53.30;;;;;;6145731;23;20025;-78
2022/08/27 12:57:03;;;;;;;9.93;6.28;;;41.70;52.50;;;;;;6143223;23;20481;-73
2022/08/27 13:00:00;;;;;;;7.40;6.70;;;41.40;53.70;;;;;;6145181;23;20084;-73
2022/08/27 13:03:14;;;;;;;9.10;6.78;;;41.10;54.30;;;;;;6143576;23;20029;-75
2022/08/27 13:05:47;;;;;;;7.97;7.32;;;41.30;54.60;;;;;;6120535;23;20450;-74
2022/08/27 13:08:22;;;;;;;12.13;7.30;;;41.30;54.30;;;;;;6145280;23;20021;-73
2022/08/27 13:10:52;;;;;;;9.73;6.47;;;41.30;54.00;;;;;;6142671;23;20052;-75
2022/08/27 13:13:23;;;;;;;8.77;7.50;;;41.10;54.40;;;;;;6143097;23;20026;-73
2022/08/27 13:15:55;;;;;;;10.48;7.43;;;41.30;54.90;;;;;;6142694;23;20076;-73
2022/08/27 13:18:26;;;;;;;19.95;11.63;;;41.50;54.10;;;;;;6145299;23;20470;-74